sensor_id;sensor_type;location;lat;lon;timestamp;P1;durP1;ratioP1;P2;durP2;ratioP2
11791;SDS011;5953;52.372;9.918;2023-11-18T00:00:24;9.03;;;6.40;;
11791;SDS011;5953;52.372;9.918;2023-11-18T00:02:52;7.07;;;6.10;;
11791;SDS011;5953;52.372;9.918;2023-11-18T00:05:20;7.33;;;5.50;;
11791;SDS011;5953;52.372;9.918;2023-11-18T00:07:51;8.27;;;5.90;;
11791;SDS011;5953;52.372;9.918;2023-11-18T00:10:19;6.63;;;5.33;;
11791;SDS011;5953;52.372;9.918;2023-11-18T00:12:47;5.80;;;5.23;;
11791;SDS011;5953;52.372;9.918;2023-11-18T00:15:15;11.03;;;6.87;;
11791;SDS011;5953;52.372;9.918;2023-11-18T00:17:42;11.73;;;8.00;;
11791;SDS011;5953;52.372;9.918;2023-11-18T00:20:11;7.60;;;5.43;;
11791;SDS011;5953;52.372;9.918;2023-11-18T00:22:46;10.17;;;6.13;;
11791;SDS011;5953;52.372;9.918;2023-11-18T00:25:15;7.13;;;5.70;;
11791;SDS011;5953;52.372;9.918;2023-11-18T00:27:43;5.97;;;5.27;;
11791;SDS011;5953;52.372;9.918;2023-11-18T00:30:11;7.47;;;5.37;;
11791;SDS011;5953;52.372;9.918;2023-11-18T00:32:39;5.93;;;5.27;;
11791;SDS011;5953;52.372;9.918;2023-11-18T00:35:07;7.13;;;5.70;;
11791;SDS011;5953;52.372;9.918;2023-11-18T00:37:37;8.73;;;5.90;;
11791;SDS011;5953;52.372;9.918;2023-11-18T00:40:06;7.03;;;5.67;;
11791;SDS011;5953;52.372;9.918;2023-11-18T00:42:36;9.20;;;6.17;;
11791;SDS011;5953;52.372;9.918;2023-11-18T00:45:04;8.63;;;6.17;;
11791;SDS011;5953;52.372;9.918;2023-11-18T00:47:33;7.93;;;6.57;;
11791;SDS011;5953;52.372;9.918;2023-11-18T00:50:01;7.10;;;5.90;;
11791;SDS011;5953;52.372;9.918;2023-11-18T00:52:30;8.30;;;6.43;;
11791;SDS011;5953;52.372;9.918;2023-11-18T00:54:57;9.37;;;6.77;;
11791;SDS011;5953;52.372;9.918;2023-11-18T00:57:25;8.23;;;6.20;;
11791;SDS011;5953;52.372;9.918;2023-11-18T00:59:55;9.97;;;6.87;;
11791;SDS011;5953;52.372;9.918;2023-11-18T01:02:22;8.53;;;5.90;;
11791;SDS011;5953;52.372;9.918;2023-11-18T01:04:50;7.43;;;6.00;;
11791;SDS011;5953;52.372;9.918;2023-11-18T01:07:18;7.00;;;5.90;;
11791;SDS011;5953;52.372;9.918;2023-11-18T01:09:46;9.30;;;6.10;;
11791;SDS011;5953;52.372;9.918;2023-11-18T01:12:15;7.53;;;6.10;;
11791;SDS011;5953;52.372;9.918;2023-11-18T01:14:43;8.83;;;6.60;;
11791;SDS011;5953;52.372;9.918;2023-11-18T01:17:12;8.37;;;6.37;;
11791;SDS011;5953;52.372;9.918;2023-11-18T01:19:40;8.60;;;5.93;;
11791;SDS011;5953;52.372;9.918;2023-11-18T01:22:09;7.37;;;5.83;;
11791;SDS011;5953;52.372;9.918;2023-11-18T01:24:37;8.20;;;5.77;;
11791;SDS011;5953;52.372;9.918;2023-11-18T01:27:05;7.73;;;6.17;;
11791;SDS011;5953;52.372;9.918;2023-11-18T01:29:36;7.97;;;5.80;;
11791;SDS011;5953;52.372;9.918;2023-11-18T01:32:04;9.90;;;6.70;;
11791;SDS011;5953;52.372;9.918;2023-11-18T01:34:37;11.83;;;7.47;;
11791;SDS011;5953;52.372;9.918;2023-11-18T01:37:05;11.33;;;7.37;;
11791;SDS011;5953;52.372;9.918;2023-11-18T01:39:33;11.50;;;7.70;;
11791;SDS011;5953;52.372;9.918;2023-11-18T01:42:02;10.27;;;6.87;;
11791;SDS011;5953;52.372;9.918;2023-11-18T01:44:30;12.47;;;7.63;;
11791;SDS011;5953;52.372;9.918;2023-11-18T01:47:00;10.10;;;7.80;;
11791;SDS011;5953;52.372;9.918;2023-11-18T01:49:32;9.67;;;7.40;;
11791;SDS011;5953;52.372;9.918;2023-11-18T01:52:07;8.33;;;6.60;;
11791;SDS011;5953;52.372;9.918;2023-11-18T01:54:36;9.87;;;6.60;;
11791;SDS011;5953;52.372;9.918;2023-11-18T01:57:05;7.30;;;6.13;;
11791;SDS011;5953;52.372;9.918;2023-11-18T01:59:36;8.00;;;5.87;;
11791;SDS011;5953;52.372;9.918;2023-11-18T02:02:06;9.10;;;6.17;;
11791;SDS011;5953;52.372;9.918;2023-11-18T02:04:34;9.77;;;6.43;;
11791;SDS011;5953;52.372;9.918;2023-11-18T02:07:04;8.37;;;5.90;;
11791;SDS011;5953;52.372;9.918;2023-11-18T02:09:36;11.50;;;6.60;;
11791;SDS011;5953;52.372;9.918;2023-11-18T02:12:06;8.60;;;6.37;;
11791;SDS011;5953;52.372;9.918;2023-11-18T02:14:46;8.07;;;5.90;;
11791;SDS011;5953;52.372;9.918;2023-11-18T02:17:17;8.13;;;6.80;;
11791;SDS011;5953;52.372;9.918;2023-11-18T02:19:50;9.53;;;7.40;;
11791;SDS011;5953;52.372;9.918;2023-11-18T02:22:20;10.53;;;7.87;;
11791;SDS011;5953;52.372;9.918;2023-11-18T02:24:49;14.77;;;8.60;;
11791;SDS011;5953;52.372;9.918;2023-11-18T02:27:18;10.87;;;8.67;;
11791;SDS011;5953;52.372;9.918;2023-11-18T02:29:48;9.67;;;7.83;;
11791;SDS011;5953;52.372;9.918;2023-11-18T02:32:19;13.00;;;8.10;;
11791;SDS011;5953;52.372;9.918;2023-11-18T02:35:01;9.60;;;8.03;;
11791;SDS011;5953;52.372;9.918;2023-11-18T02:37:37;10.03;;;8.20;;
11791;SDS011;5953;52.372;9.918;2023-11-18T02:40:11;11.83;;;9.30;;
11791;SDS011;5953;52.372;9.918;2023-11-18T02:42:44;17.73;;;10.63;;
11791;SDS011;5953;52.372;9.918;2023-11-18T02:45:14;11.40;;;9.30;;
11791;SDS011;5953;52.372;9.918;2023-11-18T02:47:44;15.87;;;11.73;;
11791;SDS011;5953;52.372;9.918;2023-11-18T02:50:12;14.83;;;10.93;;
11791;SDS011;5953;52.372;9.918;2023-11-18T02:52:41;15.70;;;11.50;;
11791;SDS011;5953;52.372;9.918;2023-11-18T02:55:09;16.07;;;12.27;;
11791;SDS011;5953;52.372;9.918;2023-11-18T02:57:37;16.90;;;11.37;;
11791;SDS011;5953;52.372;9.918;2023-11-18T03:00:07;16.40;;;11.50;;
11791;SDS011;5953;52.372;9.918;2023-11-18T03:02:43;15.63;;;10.20;;
11791;SDS011;5953;52.372;9.918;2023-11-18T03:05:12;15.47;;;9.67;;
11791;SDS011;5953;52.372;9.918;2023-11-18T03:07:39;10.87;;;8.93;;
11791;SDS011;5953;52.372;9.918;2023-11-18T03:10:08;10.63;;;9.07;;
11791;SDS011;5953;52.372;9.918;2023-11-18T03:12:38;10.87;;;8.90;;
11791;SDS011;5953;52.372;9.918;2023-11-18T03:15:08;10.13;;;8.30;;
11791;SDS011;5953;52.372;9.918;2023-11-18T03:17:38;12.63;;;9.10;;
11791;SDS011;5953;52.372;9.918;2023-11-18T03:20:06;9.90;;;8.43;;
11791;SDS011;5953;52.372;9.918;2023-11-18T03:22:35;14.63;;;9.27;;
11791;SDS011;5953;52.372;9.918;2023-11-18T03:25:03;14.40;;;9.50;;
11791;SDS011;5953;52.372;9.918;2023-11-18T03:27:33;11.40;;;8.97;;
11791;SDS011;5953;52.372;9.918;2023-11-18T03:30:04;12.03;;;9.00;;
11791;SDS011;5953;52.372;9.918;2023-11-18T03:32:36;11.80;;;9.27;;
11791;SDS011;5953;52.372;9.918;2023-11-18T03:35:06;12.70;;;9.13;;
11791;SDS011;5953;52.372;9.918;2023-11-18T03:37:36;14.83;;;11.63;;
11791;SDS011;5953;52.372;9.918;2023-11-18T03:40:05;15.50;;;11.83;;
11791;SDS011;5953;52.372;9.918;2023-11-18T03:42:34;18.43;;;12.40;;
11791;SDS011;5953;52.372;9.918;2023-11-18T03:45:02;16.17;;;12.00;;
11791;SDS011;5953;52.372;9.918;2023-11-18T03:47:30;18.20;;;11.70;;
11791;SDS011;5953;52.372;9.918;2023-11-18T03:50:01;16.33;;;11.70;;
11791;SDS011;5953;52.372;9.918;2023-11-18T03:52:29;16.67;;;12.33;;
11791;SDS011;5953;52.372;9.918;2023-11-18T03:54:57;17.47;;;12.50;;
11791;SDS011;5953;52.372;9.918;2023-11-18T03:57:24;19.17;;;12.60;;
11791;SDS011;5953;52.372;9.918;2023-11-18T03:59:52;18.17;;;11.93;;
11791;SDS011;5953;52.372;9.918;2023-11-18T04:02:20;15.80;;;11.47;;
11791;SDS011;5953;52.372;9.918;2023-11-18T04:04:48;14.60;;;10.20;;
11791;SDS011;5953;52.372;9.918;2023-11-18T04:07:17;15.60;;;11.17;;
11791;SDS011;5953;52.372;9.918;2023-11-18T04:09:45;17.00;;;11.77;;
11791;SDS011;5953;52.372;9.918;2023-11-18T04:12:13;18.43;;;12.07;;
11791;SDS011;5953;52.372;9.918;2023-11-18T04:14:42;16.50;;;11.87;;
11791;SDS011;5953;52.372;9.918;2023-11-18T04:17:10;15.70;;;11.33;;
11791;SDS011;5953;52.372;9.918;2023-11-18T04:19:38;19.60;;;12.67;;
11791;SDS011;5953;52.372;9.918;2023-11-18T04:22:06;21.33;;;12.83;;
11791;SDS011;5953;52.372;9.918;2023-11-18T04:24:35;15.53;;;12.30;;
11791;SDS011;5953;52.372;9.918;2023-11-18T04:27:03;19.37;;;13.87;;
11791;SDS011;5953;52.372;9.918;2023-11-18T04:29:31;17.37;;;12.83;;
11791;SDS011;5953;52.372;9.918;2023-11-18T04:31:58;18.23;;;13.73;;
11791;SDS011;5953;52.372;9.918;2023-11-18T04:34:27;18.87;;;13.57;;
11791;SDS011;5953;52.372;9.918;2023-11-18T04:36:55;20.10;;;13.63;;
11791;SDS011;5953;52.372;9.918;2023-11-18T04:39:23;19.27;;;14.47;;
11791;SDS011;5953;52.372;9.918;2023-11-18T04:41:53;22.13;;;15.30;;
11791;SDS011;5953;52.372;9.918;2023-11-18T04:44:22;22.33;;;14.93;;
11791;SDS011;5953;52.372;9.918;2023-11-18T04:46:50;22.03;;;15.83;;
11791;SDS011;5953;52.372;9.918;2023-11-18T04:49:18;20.83;;;14.70;;
11791;SDS011;5953;52.372;9.918;2023-11-18T04:51:46;26.53;;;17.27;;
11791;SDS011;5953;52.372;9.918;2023-11-18T04:54:14;27.07;;;17.67;;
11791;SDS011;5953;52.372;9.918;2023-11-18T04:56:42;28.77;;;19.50;;
11791;SDS011;5953;52.372;9.918;2023-11-18T04:59:12;30.00;;;19.50;;
11791;SDS011;5953;52.372;9.918;2023-11-18T05:01:39;28.50;;;21.00;;
11791;SDS011;5953;52.372;9.918;2023-11-18T05:04:08;31.03;;;20.20;;
11791;SDS011;5953;52.372;9.918;2023-11-18T05:06:37;31.47;;;23.10;;
11791;SDS011;5953;52.372;9.918;2023-11-18T05:09:05;36.03;;;24.17;;
11791;SDS011;5953;52.372;9.918;2023-11-18T05:11:34;33.33;;;22.50;;
11791;SDS011;5953;52.372;9.918;2023-11-18T05:14:02;32.70;;;21.83;;
11791;SDS011;5953;52.372;9.918;2023-11-18T05:16:31;32.97;;;22.70;;
11791;SDS011;5953;52.372;9.918;2023-11-18T05:18:59;34.63;;;22.73;;
11791;SDS011;5953;52.372;9.918;2023-11-18T05:21:27;33.20;;;22.50;;
11791;SDS011;5953;52.372;9.918;2023-11-18T05:23:55;29.00;;;21.60;;
11791;SDS011;5953;52.372;9.918;2023-11-18T05:26:23;29.93;;;22.00;;
11791;SDS011;5953;52.372;9.918;2023-11-18T05:28:51;31.50;;;21.60;;
11791;SDS011;5953;52.372;9.918;2023-11-18T05:31:20;28.97;;;20.97;;
11791;SDS011;5953;52.372;9.918;2023-11-18T05:33:49;30.87;;;22.10;;
11791;SDS011;5953;52.372;9.918;2023-11-18T05:36:21;33.60;;;22.93;;
11791;SDS011;5953;52.372;9.918;2023-11-18T05:38:54;32.80;;;24.10;;
11791;SDS011;5953;52.372;9.918;2023-11-18T05:41:22;32.73;;;22.47;;
11791;SDS011;5953;52.372;9.918;2023-11-18T05:43:54;30.33;;;22.00;;
11791;SDS011;5953;52.372;9.918;2023-11-18T05:46:24;32.30;;;23.47;;
11791;SDS011;5953;52.372;9.918;2023-11-18T05:49:01;33.63;;;22.63;;
11791;SDS011;5953;52.372;9.918;2023-11-18T05:51:31;35.83;;;24.67;;
11791;SDS011;5953;52.372;9.918;2023-11-18T05:53:59;34.20;;;23.77;;
11791;SDS011;5953;52.372;9.918;2023-11-18T05:56:27;37.67;;;25.13;;
11791;SDS011;5953;52.372;9.918;2023-11-18T05:58:55;34.60;;;24.50;;
11791;SDS011;5953;52.372;9.918;2023-11-18T06:01:23;34.37;;;23.53;;
11791;SDS011;5953;52.372;9.918;2023-11-18T06:03:53;32.63;;;22.80;;
11791;SDS011;5953;52.372;9.918;2023-11-18T06:06:24;34.53;;;24.07;;
11791;SDS011;5953;52.372;9.918;2023-11-18T06:08:52;31.27;;;21.33;;
11791;SDS011;5953;52.372;9.918;2023-11-18T06:11:20;36.90;;;22.70;;
11791;SDS011;5953;52.372;9.918;2023-11-18T06:13:50;34.03;;;23.07;;
11791;SDS011;5953;52.372;9.918;2023-11-18T06:16:19;29.63;;;22.83;;
11791;SDS011;5953;52.372;9.918;2023-11-18T06:18:48;32.43;;;22.03;;
11791;SDS011;5953;52.372;9.918;2023-11-18T06:21:18;32.93;;;23.30;;
11791;SDS011;5953;52.372;9.918;2023-11-18T06:23:52;33.80;;;22.00;;
11791;SDS011;5953;52.372;9.918;2023-11-18T06:26:21;32.13;;;22.30;;
11791;SDS011;5953;52.372;9.918;2023-11-18T06:28:50;31.47;;;22.27;;
11791;SDS011;5953;52.372;9.918;2023-11-18T06:31:18;32.07;;;22.50;;
11791;SDS011;5953;52.372;9.918;2023-11-18T06:33:47;36.17;;;24.57;;
11791;SDS011;5953;52.372;9.918;2023-11-18T06:36:18;35.87;;;23.60;;
11791;SDS011;5953;52.372;9.918;2023-11-18T06:38:48;35.63;;;22.97;;
11791;SDS011;5953;52.372;9.918;2023-11-18T06:41:19;34.70;;;23.80;;
11791;SDS011;5953;52.372;9.918;2023-11-18T06:43:50;35.60;;;24.73;;
11791;SDS011;5953;52.372;9.918;2023-11-18T06:46:28;30.90;;;22.10;;
11791;SDS011;5953;52.372;9.918;2023-11-18T06:49:00;32.50;;;22.60;;
11791;SDS011;5953;52.372;9.918;2023-11-18T06:51:31;35.13;;;22.97;;
11791;SDS011;5953;52.372;9.918;2023-11-18T06:54:03;31.83;;;22.10;;
11791;SDS011;5953;52.372;9.918;2023-11-18T06:56:38;33.97;;;21.47;;
11791;SDS011;5953;52.372;9.918;2023-11-18T06:59:09;31.97;;;21.60;;
11791;SDS011;5953;52.372;9.918;2023-11-18T07:01:39;29.00;;;21.30;;
11791;SDS011;5953;52.372;9.918;2023-11-18T07:04:09;30.93;;;21.20;;
11791;SDS011;5953;52.372;9.918;2023-11-18T07:06:37;34.50;;;22.63;;
11791;SDS011;5953;52.372;9.918;2023-11-18T07:09:05;36.60;;;24.80;;
11791;SDS011;5953;52.372;9.918;2023-11-18T07:11:40;33.30;;;22.47;;
11791;SDS011;5953;52.372;9.918;2023-11-18T07:14:08;33.83;;;22.83;;
11791;SDS011;5953;52.372;9.918;2023-11-18T07:16:37;32.73;;;22.87;;
11791;SDS011;5953;52.372;9.918;2023-11-18T07:19:05;31.00;;;22.33;;
11791;SDS011;5953;52.372;9.918;2023-11-18T07:21:33;35.30;;;22.67;;
11791;SDS011;5953;52.372;9.918;2023-11-18T07:24:01;32.33;;;23.40;;
11791;SDS011;5953;52.372;9.918;2023-11-18T07:26:29;31.93;;;22.43;;
11791;SDS011;5953;52.372;9.918;2023-11-18T07:28:59;36.10;;;24.07;;
11791;SDS011;5953;52.372;9.918;2023-11-18T07:31:27;36.27;;;24.27;;
11791;SDS011;5953;52.372;9.918;2023-11-18T07:33:55;42.10;;;24.40;;
11791;SDS011;5953;52.372;9.918;2023-11-18T07:36:23;38.00;;;22.80;;
11791;SDS011;5953;52.372;9.918;2023-11-18T07:38:52;37.57;;;25.43;;
11791;SDS011;5953;52.372;9.918;2023-11-18T07:41:19;38.87;;;25.10;;
11791;SDS011;5953;52.372;9.918;2023-11-18T07:43:50;38.60;;;25.13;;
11791;SDS011;5953;52.372;9.918;2023-11-18T07:46:23;40.93;;;24.07;;
11791;SDS011;5953;52.372;9.918;2023-11-18T07:48:52;36.43;;;24.47;;
11791;SDS011;5953;52.372;9.918;2023-11-18T07:51:20;42.37;;;25.17;;
11791;SDS011;5953;52.372;9.918;2023-11-18T07:53:49;32.70;;;22.03;;
11791;SDS011;5953;52.372;9.918;2023-11-18T07:56:19;31.97;;;22.13;;
11791;SDS011;5953;52.372;9.918;2023-11-18T07:58:49;29.73;;;21.17;;
11791;SDS011;5953;52.372;9.918;2023-11-18T08:01:18;32.23;;;21.73;;
11791;SDS011;5953;52.372;9.918;2023-11-18T08:03:48;31.60;;;22.10;;
11791;SDS011;5953;52.372;9.918;2023-11-18T08:06:17;29.30;;;21.50;;
11791;SDS011;5953;52.372;9.918;2023-11-18T08:08:45;35.57;;;23.53;;
11791;SDS011;5953;52.372;9.918;2023-11-18T08:11:14;40.33;;;23.33;;
11791;SDS011;5953;52.372;9.918;2023-11-18T08:13:43;44.60;;;26.73;;
11791;SDS011;5953;52.372;9.918;2023-11-18T08:16:11;41.73;;;25.77;;
11791;SDS011;5953;52.372;9.918;2023-11-18T08:18:41;40.47;;;24.87;;
11791;SDS011;5953;52.372;9.918;2023-11-18T08:21:10;44.67;;;25.60;;
11791;SDS011;5953;52.372;9.918;2023-11-18T08:23:39;46.87;;;27.17;;
11791;SDS011;5953;52.372;9.918;2023-11-18T08:26:06;45.20;;;26.87;;
11791;SDS011;5953;52.372;9.918;2023-11-18T08:28:35;48.67;;;28.57;;
11791;SDS011;5953;52.372;9.918;2023-11-18T08:31:03;48.93;;;27.57;;
11791;SDS011;5953;52.372;9.918;2023-11-18T08:33:32;48.93;;;27.17;;
11791;SDS011;5953;52.372;9.918;2023-11-18T08:36:00;44.10;;;26.77;;
11791;SDS011;5953;52.372;9.918;2023-11-18T08:38:30;52.00;;;28.67;;
11791;SDS011;5953;52.372;9.918;2023-11-18T08:40:58;54.63;;;29.40;;
11791;SDS011;5953;52.372;9.918;2023-11-18T08:43:26;48.03;;;28.00;;
11791;SDS011;5953;52.372;9.918;2023-11-18T08:45:55;49.00;;;29.17;;
11791;SDS011;5953;52.372;9.918;2023-11-18T08:48:22;47.67;;;27.67;;
11791;SDS011;5953;52.372;9.918;2023-11-18T08:50:50;56.17;;;31.57;;
11791;SDS011;5953;52.372;9.918;2023-11-18T08:53:18;54.90;;;30.00;;
11791;SDS011;5953;52.372;9.918;2023-11-18T08:55:54;55.87;;;28.77;;
11791;SDS011;5953;52.372;9.918;2023-11-18T08:58:22;55.83;;;28.27;;
11791;SDS011;5953;52.372;9.918;2023-11-18T09:00:55;52.30;;;28.67;;
11791;SDS011;5953;52.372;9.918;2023-11-18T09:03:32;50.90;;;26.77;;
11791;SDS011;5953;52.372;9.918;2023-11-18T09:06:02;46.03;;;24.23;;
11791;SDS011;5953;52.372;9.918;2023-11-18T09:08:32;48.13;;;25.20;;
11791;SDS011;5953;52.372;9.918;2023-11-18T09:11:04;48.93;;;27.43;;
11791;SDS011;5953;52.372;9.918;2023-11-18T09:13:33;46.27;;;25.40;;
11791;SDS011;5953;52.372;9.918;2023-11-18T09:16:02;43.13;;;24.27;;
11791;SDS011;5953;52.372;9.918;2023-11-18T09:18:35;46.60;;;25.87;;
11791;SDS011;5953;52.372;9.918;2023-11-18T09:21:08;50.63;;;28.23;;
11791;SDS011;5953;52.372;9.918;2023-11-18T09:23:42;52.57;;;27.73;;
11791;SDS011;5953;52.372;9.918;2023-11-18T09:26:12;51.73;;;28.43;;
11791;SDS011;5953;52.372;9.918;2023-11-18T09:28:41;44.20;;;25.83;;
11791;SDS011;5953;52.372;9.918;2023-11-18T09:31:10;51.40;;;28.60;;
11791;SDS011;5953;52.372;9.918;2023-11-18T09:33:39;53.07;;;28.60;;
11791;SDS011;5953;52.372;9.918;2023-11-18T09:36:13;49.57;;;26.17;;
11791;SDS011;5953;52.372;9.918;2023-11-18T09:38:42;44.93;;;24.33;;
11791;SDS011;5953;52.372;9.918;2023-11-18T09:41:16;44.80;;;24.83;;
11791;SDS011;5953;52.372;9.918;2023-11-18T09:43:45;45.70;;;25.17;;
11791;SDS011;5953;52.372;9.918;2023-11-18T09:46:15;41.07;;;21.33;;
11791;SDS011;5953;52.372;9.918;2023-11-18T09:48:47;45.53;;;22.90;;
11791;SDS011;5953;52.372;9.918;2023-11-18T09:51:19;41.87;;;24.67;;
11791;SDS011;5953;52.372;9.918;2023-11-18T09:53:49;38.60;;;21.53;;
11791;SDS011;5953;52.372;9.918;2023-11-18T09:56:21;45.13;;;21.93;;
11791;SDS011;5953;52.372;9.918;2023-11-18T09:59:01;40.43;;;22.67;;
11791;SDS011;5953;52.372;9.918;2023-11-18T10:01:35;35.30;;;20.07;;
11791;SDS011;5953;52.372;9.918;2023-11-18T10:04:09;42.90;;;21.53;;
11791;SDS011;5953;52.372;9.918;2023-11-18T10:06:38;39.13;;;20.93;;
11791;SDS011;5953;52.372;9.918;2023-11-18T10:09:08;45.93;;;21.73;;
11791;SDS011;5953;52.372;9.918;2023-11-18T10:11:45;35.83;;;21.10;;
11791;SDS011;5953;52.372;9.918;2023-11-18T10:14:15;37.27;;;20.00;;
11791;SDS011;5953;52.372;9.918;2023-11-18T10:16:43;33.67;;;20.63;;
11791;SDS011;5953;52.372;9.918;2023-11-18T10:19:14;36.03;;;19.70;;
11791;SDS011;5953;52.372;9.918;2023-11-18T10:21:45;33.20;;;19.63;;
11791;SDS011;5953;52.372;9.918;2023-11-18T10:24:16;32.60;;;18.20;;
11791;SDS011;5953;52.372;9.918;2023-11-18T10:26:55;28.90;;;15.33;;
11791;SDS011;5953;52.372;9.918;2023-11-18T10:29:24;27.33;;;15.53;;
11791;SDS011;5953;52.372;9.918;2023-11-18T10:32:04;25.13;;;14.40;;
11791;SDS011;5953;52.372;9.918;2023-11-18T10:34:36;25.20;;;15.47;;
11791;SDS011;5953;52.372;9.918;2023-11-18T10:37:04;25.60;;;14.70;;
11791;SDS011;5953;52.372;9.918;2023-11-18T10:39:33;21.63;;;14.57;;
11791;SDS011;5953;52.372;9.918;2023-11-18T10:42:03;20.70;;;12.57;;
11791;SDS011;5953;52.372;9.918;2023-11-18T10:44:31;28.30;;;14.10;;
11791;SDS011;5953;52.372;9.918;2023-11-18T10:46:59;25.83;;;14.17;;
11791;SDS011;5953;52.372;9.918;2023-11-18T10:49:28;17.13;;;10.07;;
11791;SDS011;5953;52.372;9.918;2023-11-18T10:52:03;17.00;;;9.77;;
11791;SDS011;5953;52.372;9.918;2023-11-18T10:54:35;19.67;;;10.83;;
11791;SDS011;5953;52.372;9.918;2023-11-18T10:57:05;16.20;;;9.10;;
11791;SDS011;5953;52.372;9.918;2023-11-18T10:59:35;17.53;;;8.80;;
11791;SDS011;5953;52.372;9.918;2023-11-18T11:02:17;14.10;;;7.17;;
11791;SDS011;5953;52.372;9.918;2023-11-18T11:04:48;15.40;;;9.23;;
11791;SDS011;5953;52.372;9.918;2023-11-18T11:07:16;16.83;;;9.23;;
11791;SDS011;5953;52.372;9.918;2023-11-18T11:09:45;17.63;;;10.23;;
11791;SDS011;5953;52.372;9.918;2023-11-18T11:12:14;15.03;;;9.37;;
11791;SDS011;5953;52.372;9.918;2023-11-18T11:14:46;17.00;;;8.80;;
11791;SDS011;5953;52.372;9.918;2023-11-18T11:17:19;12.47;;;8.23;;
11791;SDS011;5953;52.372;9.918;2023-11-18T11:19:59;13.43;;;7.80;;
11791;SDS011;5953;52.372;9.918;2023-11-18T11:22:45;11.70;;;6.70;;
11791;SDS011;5953;52.372;9.918;2023-11-18T11:25:20;12.57;;;8.27;;
11791;SDS011;5953;52.372;9.918;2023-11-18T11:27:55;13.70;;;7.87;;
11791;SDS011;5953;52.372;9.918;2023-11-18T11:30:28;14.07;;;7.40;;
11791;SDS011;5953;52.372;9.918;2023-11-18T11:33:01;12.03;;;7.73;;
11791;SDS011;5953;52.372;9.918;2023-11-18T11:35:36;14.37;;;7.87;;
11791;SDS011;5953;52.372;9.918;2023-11-18T11:38:06;13.40;;;8.03;;
11791;SDS011;5953;52.372;9.918;2023-11-18T11:40:40;14.63;;;7.30;;
11791;SDS011;5953;52.372;9.918;2023-11-18T11:43:10;12.30;;;7.77;;
11791;SDS011;5953;52.372;9.918;2023-11-18T11:45:42;12.23;;;7.20;;
11791;SDS011;5953;52.372;9.918;2023-11-18T11:48:13;13.87;;;7.53;;
11791;SDS011;5953;52.372;9.918;2023-11-18T11:50:53;10.97;;;7.10;;
11791;SDS011;5953;52.372;9.918;2023-11-18T11:53:32;14.87;;;9.13;;
11791;SDS011;5953;52.372;9.918;2023-11-18T11:56:05;21.60;;;8.77;;
11791;SDS011;5953;52.372;9.918;2023-11-18T11:58:41;14.27;;;7.80;;
11791;SDS011;5953;52.372;9.918;2023-11-18T12:01:21;10.83;;;6.57;;
11791;SDS011;5953;52.372;9.918;2023-11-18T12:03:57;11.10;;;6.93;;
11791;SDS011;5953;52.372;9.918;2023-11-18T12:06:27;10.97;;;7.67;;
11791;SDS011;5953;52.372;9.918;2023-11-18T12:08:55;10.27;;;7.10;;
11791;SDS011;5953;52.372;9.918;2023-11-18T12:11:24;12.80;;;7.07;;
11791;SDS011;5953;52.372;9.918;2023-11-18T12:14:05;7.63;;;5.93;;
11791;SDS011;5953;52.372;9.918;2023-11-18T12:17:03;9.47;;;6.57;;
11791;SDS011;5953;52.372;9.918;2023-11-18T12:19:36;12.03;;;6.97;;
11791;SDS011;5953;52.372;9.918;2023-11-18T12:22:13;12.57;;;7.00;;
11791;SDS011;5953;52.372;9.918;2023-11-18T12:24:45;10.37;;;7.03;;
11791;SDS011;5953;52.372;9.918;2023-11-18T12:27:43;11.67;;;6.47;;
11791;SDS011;5953;52.372;9.918;2023-11-18T12:33:18;9.57;;;6.80;;
11791;SDS011;5953;52.372;9.918;2023-11-18T12:42:07;9.30;;;6.60;;
11791;SDS011;5953;52.372;9.918;2023-11-18T12:44:48;7.83;;;6.43;;
11791;SDS011;5953;52.372;9.918;2023-11-18T12:47:43;10.80;;;6.97;;
11791;SDS011;5953;52.372;9.918;2023-11-18T12:50:12;9.97;;;6.47;;
11791;SDS011;5953;52.372;9.918;2023-11-18T12:52:51;11.67;;;7.43;;
11791;SDS011;5953;52.372;9.918;2023-11-18T12:55:19;10.20;;;7.53;;
11791;SDS011;5953;52.372;9.918;2023-11-18T12:57:47;9.87;;;6.70;;
11791;SDS011;5953;52.372;9.918;2023-11-18T13:00:17;10.43;;;7.23;;
11791;SDS011;5953;52.372;9.918;2023-11-18T13:02:54;11.80;;;8.50;;
11791;SDS011;5953;52.372;9.918;2023-11-18T13:05:24;9.07;;;7.07;;
11791;SDS011;5953;52.372;9.918;2023-11-18T13:07:56;12.47;;;6.83;;
11791;SDS011;5953;52.372;9.918;2023-11-18T13:10:26;10.93;;;6.27;;
11791;SDS011;5953;52.372;9.918;2023-11-18T13:12:54;9.10;;;6.17;;
11791;SDS011;5953;52.372;9.918;2023-11-18T13:15:24;10.83;;;7.60;;
11791;SDS011;5953;52.372;9.918;2023-11-18T13:18:00;8.97;;;5.93;;
11791;SDS011;5953;52.372;9.918;2023-11-18T13:20:33;11.47;;;6.63;;
11791;SDS011;5953;52.372;9.918;2023-11-18T13:23:02;9.83;;;6.57;;
11791;SDS011;5953;52.372;9.918;2023-11-18T13:25:35;7.57;;;5.80;;
11791;SDS011;5953;52.372;9.918;2023-11-18T13:28:05;9.83;;;5.27;;
11791;SDS011;5953;52.372;9.918;2023-11-18T13:30:36;9.57;;;6.50;;
11791;SDS011;5953;52.372;9.918;2023-11-18T13:33:07;8.70;;;6.47;;
11791;SDS011;5953;52.372;9.918;2023-11-18T13:35:38;7.50;;;5.90;;
11791;SDS011;5953;52.372;9.918;2023-11-18T13:38:05;8.73;;;6.00;;
11791;SDS011;5953;52.372;9.918;2023-11-18T13:40:41;8.43;;;5.80;;
11791;SDS011;5953;52.372;9.918;2023-11-18T13:43:10;9.93;;;7.03;;
11791;SDS011;5953;52.372;9.918;2023-11-18T13:45:38;7.53;;;5.97;;
11791;SDS011;5953;52.372;9.918;2023-11-18T13:48:07;8.50;;;6.27;;
11791;SDS011;5953;52.372;9.918;2023-11-18T13:50:35;7.70;;;5.37;;
11791;SDS011;5953;52.372;9.918;2023-11-18T13:53:04;7.47;;;5.63;;
11791;SDS011;5953;52.372;9.918;2023-11-18T13:55:34;8.23;;;5.37;;
11791;SDS011;5953;52.372;9.918;2023-11-18T13:58:05;10.33;;;5.67;;
11791;SDS011;5953;52.372;9.918;2023-11-18T14:00:33;7.23;;;5.60;;
11791;SDS011;5953;52.372;9.918;2023-11-18T14:03:03;8.30;;;5.67;;
11791;SDS011;5953;52.372;9.918;2023-11-18T14:05:34;8.17;;;5.40;;
11791;SDS011;5953;52.372;9.918;2023-11-18T14:08:04;7.23;;;4.90;;
11791;SDS011;5953;52.372;9.918;2023-11-18T14:10:36;6.47;;;5.27;;
11791;SDS011;5953;52.372;9.918;2023-11-18T14:13:07;9.53;;;5.50;;
11791;SDS011;5953;52.372;9.918;2023-11-18T14:15:39;9.40;;;6.10;;
11791;SDS011;5953;52.372;9.918;2023-11-18T14:18:10;9.23;;;5.90;;
11791;SDS011;5953;52.372;9.918;2023-11-18T14:20:41;8.03;;;5.63;;
11791;SDS011;5953;52.372;9.918;2023-11-18T14:23:09;8.23;;;6.27;;
11791;SDS011;5953;52.372;9.918;2023-11-18T14:25:37;7.70;;;5.37;;
11791;SDS011;5953;52.372;9.918;2023-11-18T14:28:05;9.53;;;6.00;;
11791;SDS011;5953;52.372;9.918;2023-11-18T14:30:34;8.47;;;5.97;;
11791;SDS011;5953;52.372;9.918;2023-11-18T14:33:03;9.63;;;5.83;;
11791;SDS011;5953;52.372;9.918;2023-11-18T14:35:31;6.60;;;5.53;;
11791;SDS011;5953;52.372;9.918;2023-11-18T14:38:00;6.33;;;5.33;;
11791;SDS011;5953;52.372;9.918;2023-11-18T14:40:28;7.70;;;6.20;;
11791;SDS011;5953;52.372;9.918;2023-11-18T14:42:56;7.73;;;6.57;;
11791;SDS011;5953;52.372;9.918;2023-11-18T14:45:25;7.97;;;6.50;;
11791;SDS011;5953;52.372;9.918;2023-11-18T14:47:54;8.27;;;6.00;;
11791;SDS011;5953;52.372;9.918;2023-11-18T14:50:24;7.33;;;5.40;;
11791;SDS011;5953;52.372;9.918;2023-11-18T14:52:53;8.23;;;6.33;;
11791;SDS011;5953;52.372;9.918;2023-11-18T14:55:30;7.47;;;6.23;;
11791;SDS011;5953;52.372;9.918;2023-11-18T14:57:59;7.80;;;5.90;;
11791;SDS011;5953;52.372;9.918;2023-11-18T15:00:26;6.47;;;5.43;;
11791;SDS011;5953;52.372;9.918;2023-11-18T15:02:58;7.43;;;6.10;;
11791;SDS011;5953;52.372;9.918;2023-11-18T15:05:27;8.93;;;6.57;;
11791;SDS011;5953;52.372;9.918;2023-11-18T15:07:55;10.20;;;5.97;;
11791;SDS011;5953;52.372;9.918;2023-11-18T15:10:26;7.53;;;5.93;;
11791;SDS011;5953;52.372;9.918;2023-11-18T15:12:57;8.17;;;5.90;;